createdAt,value
2022-11-20T00:01:38.612Z,23.48
2022-11-20T00:04:07.427Z,18.73
2022-11-20T00:06:35.961Z,20.98
2022-11-20T00:09:06.286Z,19.27
2022-11-20T00:11:34.699Z,16.67
2022-11-20T00:14:03.455Z,16.08
2022-11-20T00:16:33.494Z,12.63
2022-11-20T00:19:02.551Z,17.52
2022-11-20T00:21:31.486Z,14.82
2022-11-20T00:24:00.428Z,11.38
2022-11-20T00:26:29.575Z,19.33
2022-11-20T00:29:02.218Z,18.90
2022-11-20T00:31:31.604Z,17.35
2022-11-20T00:33:59.974Z,19.15
2022-11-20T00:36:29.879Z,21.73
2022-11-20T00:38:59.297Z,18.83
2022-11-20T00:41:30.569Z,16.13
2022-11-20T00:43:58.970Z,15.83
2022-11-20T00:46:28.630Z,15.60
2022-11-20T00:48:57.159Z,16.25
2022-11-20T00:51:27.470Z,16.00
2022-11-20T00:53:57.540Z,14.65
2022-11-20T00:56:26.463Z,15.65
2022-11-20T00:58:55.281Z,18.20
2022-11-20T01:01:26.893Z,18.10
2022-11-20T01:03:57.982Z,16.77
2022-11-20T01:06:32.295Z,17.63
2022-11-20T01:09:03.983Z,22.23
2022-11-20T01:11:35.586Z,22.65
2022-11-20T01:14:07.012Z,18.00
2022-11-20T01:16:37.897Z,19.15
2022-11-20T01:19:10.645Z,18.90
2022-11-20T01:21:41.884Z,16.45
2022-11-20T01:24:15.468Z,18.93
2022-11-20T01:26:45.046Z,16.80
2022-11-20T01:29:16.424Z,17.77
2022-11-20T01:31:45.898Z,18.40
2022-11-20T01:34:18.387Z,17.38
2022-11-20T01:36:47.595Z,28.40
2022-11-20T01:39:27.240Z,16.15
2022-11-20T01:42:15.108Z,19.75
2022-11-20T01:44:57.852Z,15.55
2022-11-20T01:47:36.311Z,21.38
2022-11-20T01:50:12.628Z,23.45
2022-11-20T01:53:06.334Z,18.50
2022-11-20T01:55:42.994Z,21.13
2022-11-20T01:58:12.641Z,19.25
2022-11-20T02:00:41.493Z,20.83
2022-11-20T02:03:13.682Z,17.08
2022-11-20T02:08:29.475Z,15.82
2022-11-20T02:10:57.943Z,16.05
2022-11-20T02:13:44.613Z,17.92
2022-11-20T02:16:25.326Z,15.60
2022-11-20T02:18:56.625Z,19.50
2022-11-20T02:21:41.446Z,15.70
2022-11-20T02:24:20.278Z,14.80
2022-11-20T02:27:09.932Z,21.88
2022-11-20T02:29:53.921Z,20.45
2022-11-20T02:32:31.336Z,19.75
2022-11-20T02:35:27.325Z,17.45
2022-11-20T02:37:57.744Z,24.15
2022-11-20T02:40:26.433Z,20.98
2022-11-20T02:42:58.468Z,18.20
2022-11-20T02:45:26.980Z,23.50
2022-11-20T02:47:55.460Z,20.83
2022-11-20T02:50:23.947Z,16.88
2022-11-20T02:52:52.550Z,21.52
2022-11-20T02:55:21.007Z,18.70
2022-11-20T02:57:49.523Z,21.10
2022-11-20T03:00:18.107Z,21.63
2022-11-20T03:02:46.512Z,18.92
2022-11-20T03:05:15.103Z,20.30
2022-11-20T03:07:44.825Z,20.35
2022-11-20T03:10:13.346Z,18.10
2022-11-20T03:12:41.788Z,21.08
2022-11-20T03:15:10.777Z,20.30
2022-11-20T03:17:39.207Z,16.20
2022-11-20T03:20:08.571Z,23.15
2022-11-20T03:22:37.082Z,17.48
2022-11-20T03:25:05.820Z,17.95
2022-11-20T03:27:35.820Z,17.02
2022-11-20T03:30:05.284Z,23.13
2022-11-20T03:32:33.708Z,19.98
2022-11-20T03:35:02.244Z,21.15
2022-11-20T03:37:30.704Z,19.25
2022-11-20T03:39:59.101Z,20.48
2022-11-20T03:42:46.195Z,19.02
2022-11-20T03:45:16.458Z,27.13
2022-11-20T03:47:45.641Z,18.00
2022-11-20T03:50:14.967Z,16.75
2022-11-20T03:52:43.404Z,18.80
2022-11-20T03:55:11.865Z,18.10
2022-11-20T03:57:41.512Z,21.13
2022-11-20T04:00:10.565Z,27.08
2022-11-20T04:02:39.100Z,18.77
2022-11-20T04:05:07.862Z,21.90
2022-11-20T04:07:36.495Z,25.48
2022-11-20T04:10:05.365Z,18.13
2022-11-20T04:12:34.495Z,19.80
2022-11-20T04:15:03.080Z,22.90
2022-11-20T04:17:31.493Z,19.70
2022-11-20T04:19:59.890Z,18.63
2022-11-20T04:22:28.425Z,21.42
2022-11-20T04:24:57.845Z,22.88
2022-11-20T04:27:26.244Z,24.35
2022-11-20T04:29:54.645Z,24.77
2022-11-20T04:32:23.204Z,27.45
2022-11-20T04:34:51.657Z,20.00
2022-11-20T04:37:20.148Z,20.52
2022-11-20T04:39:48.519Z,23.52
2022-11-20T04:42:32.115Z,19.92
2022-11-20T04:45:00.669Z,32.08
2022-11-20T04:47:29.077Z,20.05
2022-11-20T04:49:57.602Z,21.88
2022-11-20T04:52:26.113Z,20.85
2022-11-20T04:54:54.543Z,18.45
2022-11-20T04:57:23.184Z,19.85
2022-11-20T04:59:51.622Z,22.52
2022-11-20T05:02:20.744Z,19.42
2022-11-20T05:04:49.214Z,22.05
2022-11-20T05:07:17.731Z,22.50
2022-11-20T05:09:46.162Z,28.58
2022-11-20T05:12:14.592Z,20.90
2022-11-20T05:14:43.022Z,19.30
2022-11-20T05:17:13.114Z,28.60
2022-11-20T05:19:41.608Z,20.00
2022-11-20T05:22:10.039Z,20.42
2022-11-20T05:24:38.414Z,20.85
2022-11-20T05:27:06.835Z,27.95
2022-11-20T05:29:35.184Z,19.52
2022-11-20T05:32:03.900Z,20.17
2022-11-20T05:34:32.823Z,26.35
2022-11-20T05:37:01.337Z,20.60
2022-11-20T05:39:29.953Z,23.73
2022-11-20T05:42:16.975Z,18.83
2022-11-20T05:44:45.377Z,21.95
2022-11-20T05:47:13.788Z,18.80
2022-11-20T05:49:42.239Z,24.08
2022-11-20T05:52:10.747Z,16.20
2022-11-20T05:54:39.244Z,21.30
2022-11-20T05:57:07.660Z,19.98
2022-11-20T05:59:36.049Z,18.73
2022-11-20T06:02:04.609Z,17.92
2022-11-20T06:04:33.003Z,20.65
2022-11-20T06:07:01.787Z,18.02
2022-11-20T06:09:30.308Z,18.77
2022-11-20T06:11:58.742Z,22.25
2022-11-20T06:14:27.174Z,18.20
2022-11-20T06:16:55.736Z,18.50
2022-11-20T06:19:24.364Z,16.80
2022-11-20T06:21:52.910Z,20.52
2022-11-20T06:24:21.353Z,18.35
2022-11-20T06:26:49.834Z,20.40
2022-11-20T06:29:18.428Z,15.25
2022-11-20T06:31:46.941Z,20.92
2022-11-20T06:34:15.481Z,20.30
2022-11-20T06:36:43.957Z,18.40
2022-11-20T06:39:13.015Z,21.83
2022-11-20T06:41:41.406Z,18.30
2022-11-20T06:44:10.171Z,18.38
2022-11-20T06:46:38.682Z,19.88
2022-11-20T06:49:07.320Z,18.10
2022-11-20T06:51:35.701Z,19.00
2022-11-20T06:54:04.319Z,24.38
2022-11-20T06:56:32.787Z,16.67
2022-11-20T06:59:05.889Z,19.45
2022-11-20T07:01:34.554Z,18.48
2022-11-20T07:04:04.243Z,20.02
2022-11-20T07:06:32.941Z,18.58
2022-11-20T07:09:02.589Z,20.38
2022-11-20T07:11:32.007Z,17.08
2022-11-20T07:14:01.448Z,18.77
2022-11-20T07:16:30.879Z,20.35
2022-11-20T07:18:59.241Z,18.10
2022-11-20T07:21:27.630Z,14.65
2022-11-20T07:23:56.162Z,26.95
2022-11-20T07:26:24.587Z,14.85
2022-11-20T07:28:53.125Z,15.90
2022-11-20T07:31:21.851Z,17.83
2022-11-20T07:33:50.295Z,19.45
2022-11-20T07:36:18.743Z,17.38
2022-11-20T07:38:47.201Z,19.75
2022-11-20T07:41:15.925Z,20.42
2022-11-20T07:43:44.369Z,19.65
2022-11-20T07:46:12.740Z,16.08
2022-11-20T07:48:42.149Z,23.67
2022-11-20T07:51:10.636Z,17.85
2022-11-20T07:53:39.087Z,25.52
2022-11-20T07:56:07.835Z,18.60
2022-11-20T07:58:37.499Z,17.65
2022-11-20T08:01:07.836Z,28.50
2022-11-20T08:03:38.707Z,22.13
2022-11-20T08:06:08.092Z,17.83
2022-11-20T08:08:41.423Z,16.48
2022-11-20T08:11:29.600Z,30.58
2022-11-20T08:14:13.419Z,21.67
2022-11-20T08:16:47.139Z,17.17
2022-11-20T08:19:17.614Z,20.05
2022-11-20T08:21:46.344Z,18.77
2022-11-20T08:24:14.913Z,20.45
2022-11-20T08:26:43.414Z,15.90
2022-11-20T08:29:11.731Z,19.55
2022-11-20T08:31:41.329Z,17.10
2022-11-20T08:34:11.307Z,19.67
2022-11-20T08:36:41.343Z,19.08
2022-11-20T08:39:14.863Z,18.52
2022-11-20T08:41:43.364Z,26.95
2022-11-20T08:44:11.935Z,22.58
2022-11-20T08:46:44.524Z,20.80
2022-11-20T08:49:14.628Z,23.77
2022-11-20T08:51:43.274Z,23.75
2022-11-20T08:54:11.831Z,22.02
2022-11-20T08:56:40.413Z,18.08
2022-11-20T08:59:26.909Z,18.50
2022-11-20T09:01:58.382Z,29.05
2022-11-20T09:04:26.966Z,19.38
2022-11-20T09:06:55.383Z,21.40
2022-11-20T09:09:24.521Z,23.88
2022-11-20T09:11:53.125Z,25.60
2022-11-20T09:14:22.362Z,28.35
2022-11-20T09:16:50.860Z,34.95
2022-11-20T09:19:36.019Z,27.83
2022-11-20T09:22:04.947Z,37.42
2022-11-20T09:24:33.420Z,35.55
2022-11-20T09:27:05.785Z,32.42
2022-11-20T09:29:34.277Z,37.25
2022-11-20T09:32:02.690Z,36.72
2022-11-20T09:34:31.257Z,40.50
2022-11-20T09:37:02.952Z,43.05
2022-11-20T09:39:35.447Z,44.55
2022-11-20T09:42:16.033Z,46.38
2022-11-20T09:44:56.055Z,44.92
2022-11-20T09:47:44.506Z,44.42
2022-11-20T09:50:31.280Z,58.35
2022-11-20T09:53:14.726Z,32.47
2022-11-20T09:55:43.627Z,52.55
2022-11-20T09:58:30.380Z,48.30
2022-11-20T10:01:10.599Z,41.65
2022-11-20T10:03:42.970Z,42.88
2022-11-20T10:06:17.670Z,41.17
2022-11-20T10:08:55.874Z,43.10
2022-11-20T10:11:33.699Z,40.47
2022-11-20T10:14:20.380Z,51.97
2022-11-20T10:16:58.825Z,49.42
2022-11-20T10:19:27.237Z,53.20
2022-11-20T10:22:00.769Z,42.60
2022-11-20T10:24:35.175Z,44.75
2022-11-20T10:27:21.944Z,49.28
2022-11-20T10:30:09.563Z,54.78
2022-11-20T10:32:44.439Z,57.40
2022-11-20T10:35:28.732Z,70.78
2022-11-20T10:38:02.895Z,54.53
2022-11-20T10:40:49.082Z,47.55
2022-11-20T10:43:22.759Z,48.75
2022-11-20T10:45:59.714Z,44.67
2022-11-20T10:48:29.633Z,41.92
2022-11-20T10:51:10.015Z,39.15
2022-11-20T10:54:02.047Z,39.72
2022-11-20T10:56:49.650Z,38.78
2022-11-20T10:59:44.903Z,44.25
2022-11-20T11:02:18.630Z,46.95
2022-11-20T11:04:55.882Z,41.17
2022-11-20T11:07:43.063Z,45.97
2022-11-20T11:10:23.698Z,46.40
2022-11-20T11:12:52.111Z,49.05
2022-11-20T11:15:28.393Z,44.58
2022-11-20T11:17:57.666Z,44.35
2022-11-20T11:20:27.010Z,46.40
2022-11-20T11:22:58.273Z,58.72
2022-11-20T11:25:37.988Z,39.23
2022-11-20T11:28:28.881Z,41.35
2022-11-20T11:30:57.353Z,45.47
2022-11-20T11:33:28.028Z,68.47
2022-11-20T11:36:02.399Z,57.50
2022-11-20T11:38:36.750Z,51.70
2022-11-20T11:41:15.897Z,50.78
2022-11-20T11:44:12.980Z,44.45
2022-11-20T11:46:50.982Z,54.60
2022-11-20T11:49:21.226Z,54.85
2022-11-20T11:52:02.743Z,46.95
2022-11-20T11:54:35.139Z,57.03
2022-11-20T11:57:12.991Z,51.42
2022-11-20T11:59:56.798Z,47.33
2022-11-20T12:02:33.687Z,49.05
2022-11-20T12:05:14.298Z,53.15
2022-11-20T12:07:50.580Z,41.28
2022-11-20T12:10:31.223Z,50.97
2022-11-20T12:13:21.498Z,50.97
2022-11-20T12:15:50.515Z,45.22
2022-11-20T12:18:22.297Z,47.35
2022-11-20T12:21:08.814Z,61.47
2022-11-20T12:23:54.505Z,51.30
2022-11-20T12:26:35.076Z,58.00
2022-11-20T12:29:33.198Z,46.72
2022-11-20T12:32:07.507Z,43.00
2022-11-20T12:34:49.363Z,54.10
2022-11-20T12:37:30.005Z,56.92
2022-11-20T12:40:27.335Z,50.05
2022-11-20T12:43:31.251Z,49.55
2022-11-20T12:46:28.139Z,47.80
2022-11-20T12:48:56.898Z,62.50
2022-11-20T12:51:34.317Z,60.60
2022-11-20T12:54:08.681Z,60.92
2022-11-20T12:57:07.491Z,54.03
2022-11-20T12:59:43.533Z,50.95
2022-11-20T13:02:34.967Z,65.38
2022-11-20T13:05:47.870Z,78.07
2022-11-20T13:11:00.801Z,200.20
2022-11-20T13:13:43.438Z,131.10
2022-11-20T13:16:33.325Z,155.40
2022-11-20T13:19:05.076Z,176.60
2022-11-20T13:21:42.111Z,251.85
2022-11-20T13:24:20.018Z,207.13
2022-11-20T13:26:48.765Z,72.10
2022-11-20T13:29:19.748Z,71.68
2022-11-20T13:31:49.564Z,70.78
2022-11-20T13:34:26.886Z,62.97
2022-11-20T13:36:58.815Z,72.57
2022-11-20T13:39:29.488Z,62.72
2022-11-20T13:42:01.158Z,56.72
2022-11-20T13:44:40.025Z,56.30
2022-11-20T13:47:26.597Z,71.55
2022-11-20T13:49:59.660Z,45.85
2022-11-20T13:53:05.954Z,49.25
2022-11-20T13:55:43.786Z,64.35
2022-11-20T13:58:36.535Z,66.35
2022-11-20T14:01:18.034Z,54.80
2022-11-20T14:06:44.975Z,64.35
2022-11-20T14:09:25.769Z,62.92
2022-11-20T14:11:54.257Z,63.97
2022-11-20T14:14:25.840Z,49.50
2022-11-20T14:17:09.089Z,45.20
2022-11-20T14:19:42.383Z,50.13
2022-11-20T14:22:22.470Z,65.60
2022-11-20T14:25:05.726Z,58.60
2022-11-20T14:27:37.586Z,54.17
2022-11-20T14:30:14.453Z,59.92
2022-11-20T14:32:46.014Z,58.38
2022-11-20T14:35:37.945Z,90.75
2022-11-20T14:38:14.541Z,63.95
2022-11-20T14:40:43.341Z,55.22
2022-11-20T14:43:24.908Z,64.60
2022-11-20T14:46:04.185Z,62.75
2022-11-20T14:48:39.992Z,56.70
2022-11-20T14:51:11.916Z,86.38
2022-11-20T14:53:40.418Z,78.60
2022-11-20T14:56:09.614Z,129.30
2022-11-20T14:58:42.166Z,73.85
2022-11-20T15:01:14.361Z,107.75
2022-11-20T15:06:13.600Z,88.82
2022-11-20T15:08:52.369Z,58.80
2022-11-20T15:11:28.618Z,75.80
2022-11-20T15:13:58.029Z,70.45
2022-11-20T15:16:28.176Z,75.10
2022-11-20T15:18:56.630Z,77.65
2022-11-20T15:21:25.454Z,105.35
2022-11-20T15:23:54.892Z,50.65
2022-11-20T15:26:27.220Z,95.85
2022-11-20T15:28:55.963Z,67.70
2022-11-20T15:31:28.634Z,119.20
2022-11-20T15:34:03.125Z,64.65
2022-11-20T15:36:33.545Z,55.58
2022-11-20T15:39:03.527Z,73.47
2022-11-20T15:41:31.900Z,79.15
2022-11-20T15:44:01.340Z,73.30
2022-11-20T15:46:39.032Z,54.55
2022-11-20T15:49:13.180Z,54.70
2022-11-20T15:51:47.618Z,58.65
2022-11-20T15:54:21.133Z,51.35
2022-11-20T15:56:53.133Z,54.15
2022-11-20T15:59:21.631Z,56.38
2022-11-20T16:01:50.236Z,77.80
2022-11-20T16:04:19.554Z,53.53
2022-11-20T16:06:48.070Z,73.47
2022-11-20T16:09:16.515Z,59.45
2022-11-20T16:11:45.034Z,64.20
2022-11-20T16:14:31.969Z,41.60
2022-11-20T16:17:00.364Z,68.15
2022-11-20T16:19:28.876Z,65.38
2022-11-20T16:22:02.658Z,389.67
2022-11-20T16:24:32.852Z,39.13
2022-11-20T16:27:01.489Z,33.33
2022-11-20T16:29:29.943Z,36.53
2022-11-20T16:31:58.417Z,31.23
2022-11-20T16:34:27.237Z,25.58
2022-11-20T16:36:55.916Z,22.90
2022-11-20T16:39:25.931Z,22.25
2022-11-20T16:41:54.305Z,18.10
2022-11-20T16:44:22.999Z,16.17
2022-11-20T16:46:51.564Z,17.52
2022-11-20T16:49:20.041Z,34.75
2022-11-20T16:51:48.509Z,20.52
2022-11-20T16:54:21.069Z,18.17
2022-11-20T16:56:51.878Z,23.52
2022-11-20T16:59:20.528Z,14.95
2022-11-20T17:01:49.135Z,12.15
2022-11-20T17:04:17.720Z,12.25
2022-11-20T17:06:46.204Z,10.70
2022-11-20T17:09:14.826Z,31.50
2022-11-20T17:11:44.339Z,15.95
2022-11-20T17:14:13.785Z,7.07
2022-11-20T17:16:42.975Z,6.50
2022-11-20T17:19:11.849Z,10.40
2022-11-20T17:21:40.581Z,24.67
2022-11-20T17:24:13.315Z,31.60
2022-11-20T17:26:43.325Z,17.70
2022-11-20T17:29:19.177Z,24.98
2022-11-20T17:31:48.752Z,21.50
2022-11-20T17:34:17.776Z,8.45
2022-11-20T17:36:46.630Z,8.70
2022-11-20T17:39:16.574Z,9.68
2022-11-20T17:41:45.787Z,8.35
2022-11-20T17:44:14.409Z,10.55
2022-11-20T17:46:42.974Z,22.92
2022-11-20T17:49:11.524Z,8.02
2022-11-20T17:51:42.007Z,11.60
2022-11-20T17:54:10.795Z,15.85
2022-11-20T17:56:57.860Z,8.68
2022-11-20T17:59:26.397Z,14.43
2022-11-20T18:01:56.820Z,16.52
2022-11-20T18:04:28.172Z,13.77
2022-11-20T18:06:56.615Z,12.30
2022-11-20T18:09:25.109Z,14.00
2022-11-20T18:11:53.535Z,12.20
2022-11-20T18:14:36.167Z,15.02
2022-11-20T18:17:08.145Z,22.23
2022-11-20T18:19:55.592Z,22.00
2022-11-20T18:22:31.541Z,8.32
2022-11-20T18:24:59.896Z,36.20
2022-11-20T18:27:28.329Z,10.38
2022-11-20T18:29:56.729Z,12.93
2022-11-20T18:32:25.135Z,11.80
2022-11-20T18:34:53.611Z,29.60
2022-11-20T18:37:22.311Z,38.17
2022-11-20T18:39:50.748Z,18.02
2022-11-20T18:42:37.865Z,17.63
2022-11-20T18:45:06.729Z,13.82
2022-11-20T18:47:37.816Z,15.05
2022-11-20T18:50:08.160Z,21.75
2022-11-20T18:52:44.648Z,13.65
2022-11-20T18:55:13.690Z,20.17
2022-11-20T18:57:42.123Z,22.75
2022-11-20T19:00:11.109Z,16.13
2022-11-20T19:02:42.518Z,14.05
2022-11-20T19:05:13.012Z,19.48
2022-11-20T19:07:42.270Z,17.95
2022-11-20T19:10:10.957Z,25.50
2022-11-20T19:12:39.393Z,20.95
2022-11-20T19:15:07.934Z,25.00
2022-11-20T19:17:36.381Z,26.10
2022-11-20T19:20:05.154Z,26.05
2022-11-20T19:22:33.695Z,20.50
2022-11-20T19:25:02.191Z,23.88
2022-11-20T19:27:30.586Z,16.02
2022-11-20T19:30:03.241Z,22.52
2022-11-20T19:32:32.651Z,16.90
2022-11-20T19:35:01.226Z,20.08
2022-11-20T19:37:33.231Z,32.55
2022-11-20T19:40:04.392Z,22.60
2022-11-20T19:42:32.904Z,31.20
2022-11-20T19:45:01.494Z,23.85
2022-11-20T19:47:52.717Z,20.42
2022-11-20T19:50:18.315Z,21.05
2022-11-20T19:52:46.759Z,35.30
2022-11-20T19:55:15.246Z,25.33
2022-11-20T19:57:43.640Z,19.67
2022-11-20T20:00:15.662Z,17.95
2022-11-20T20:02:48.434Z,19.90
2022-11-20T20:05:16.947Z,27.20
2022-11-20T20:07:45.485Z,31.77
2022-11-20T20:10:14.090Z,22.50
2022-11-20T20:12:42.480Z,22.27
2022-11-20T20:15:11.202Z,25.98
2022-11-20T20:17:39.671Z,26.48
2022-11-20T20:20:09.659Z,25.73
2022-11-20T20:22:38.015Z,20.40
2022-11-20T20:25:07.097Z,29.15
2022-11-20T20:27:36.923Z,18.13
2022-11-20T20:30:07.306Z,22.45
2022-11-20T20:32:36.121Z,31.83
2022-11-20T20:35:05.769Z,20.13
2022-11-20T20:37:34.188Z,16.25
2022-11-20T20:40:02.633Z,33.38
2022-11-20T20:42:32.225Z,21.38
2022-11-20T20:45:06.474Z,20.38
2022-11-20T20:47:39.435Z,30.88
2022-11-20T20:50:11.093Z,25.65
2022-11-20T20:52:39.769Z,31.65
2022-11-20T20:55:08.829Z,17.35
2022-11-20T20:57:37.533Z,41.97
2022-11-20T21:00:06.902Z,44.75
2022-11-20T21:02:35.330Z,19.23
2022-11-20T21:05:05.105Z,20.27
2022-11-20T21:07:33.619Z,22.67
2022-11-20T21:10:02.056Z,37.20
2022-11-20T21:12:31.530Z,25.58
2022-11-20T21:15:00.013Z,33.35
2022-11-20T21:17:28.433Z,27.15
2022-11-20T21:19:56.808Z,32.67
2022-11-20T21:22:25.233Z,24.73
2022-11-20T21:24:53.595Z,37.72
2022-11-20T21:27:21.959Z,26.20
2022-11-20T21:29:50.414Z,23.42
2022-11-20T21:32:19.808Z,28.77
2022-11-20T21:34:48.183Z,21.85
2022-11-20T21:37:16.608Z,18.05
2022-11-20T21:39:51.602Z,32.22
2022-11-20T21:42:20.036Z,17.70
2022-11-20T21:44:48.428Z,35.67
2022-11-20T21:47:16.875Z,26.38
2022-11-20T21:49:45.247Z,21.73
2022-11-20T21:52:13.654Z,24.52
2022-11-20T21:54:42.098Z,22.77
2022-11-20T21:57:10.497Z,24.25
2022-11-20T21:59:38.883Z,15.40
2022-11-20T22:02:07.977Z,55.40
2022-11-20T22:04:36.492Z,18.63
2022-11-20T22:07:08.022Z,25.23
2022-11-20T22:09:36.517Z,20.63
2022-11-20T22:12:05.476Z,30.25
2022-11-20T22:14:33.975Z,28.25
2022-11-20T22:17:02.376Z,39.53
2022-11-20T22:19:30.826Z,19.13
2022-11-20T22:21:59.250Z,18.38
2022-11-20T22:24:28.794Z,16.60
2022-11-20T22:26:58.380Z,18.50
2022-11-20T22:29:27.763Z,20.27
2022-11-20T22:31:56.164Z,25.95
2022-11-20T22:34:24.956Z,19.58
2022-11-20T22:36:53.537Z,16.67
2022-11-20T22:39:23.018Z,21.55
2022-11-20T22:41:51.510Z,30.48
2022-11-20T22:44:19.945Z,30.65
2022-11-20T22:46:48.329Z,22.75
2022-11-20T22:49:16.663Z,11.25
2022-11-20T22:51:45.046Z,37.72
2022-11-20T22:54:14.510Z,24.50
2022-11-20T22:56:43.055Z,15.68
2022-11-20T22:59:11.534Z,15.20
2022-11-20T23:01:40.016Z,18.48
2022-11-20T23:04:10.827Z,23.70
2022-11-20T23:06:40.321Z,22.20
2022-11-20T23:09:09.969Z,34.45
2022-11-20T23:11:39.384Z,26.30
2022-11-20T23:14:14.083Z,19.80
2022-11-20T23:16:42.477Z,33.78
2022-11-20T23:19:14.375Z,23.08
2022-11-20T23:21:43.474Z,44.20
2022-11-20T23:24:12.025Z,30.95
2022-11-20T23:26:41.459Z,17.13
2022-11-20T23:29:09.974Z,36.60
2022-11-20T23:31:38.382Z,5.40
2022-11-20T23:34:06.808Z,18.90
2022-11-20T23:36:35.228Z,16.70
2022-11-20T23:39:03.750Z,14.55
2022-11-20T23:41:32.151Z,12.93
2022-11-20T23:44:00.520Z,20.77
2022-11-20T23:46:29.005Z,26.23
2022-11-20T23:48:57.363Z,13.77
2022-11-20T23:51:25.906Z,8.82
2022-11-20T23:53:54.356Z,15.45
2022-11-20T23:56:22.710Z,19.13
2022-11-20T23:58:51.105Z,21.60
